Time;durP1;ratioP1;P1;durP2;ratioP2;P2;SDS_P1;SDS_P2;PMS_P1;PMS_P2;Temp;Humidity;BMP_temperature;BMP_pressure;BME280_temperature;BME280_humidity;BME280_pressure;Samples;Min_cycle;Max_cycle;Signal;HPM_P1;HPM_P2
2021/04/03 00:00:21;;;;;;;11.82;2.05;;;6.50;99.90;;;;;;5000480;28;20037;-65
2021/04/03 00:02:47;;;;;;;10.93;1.30;;;6.50;99.90;;;;;;5000562;28;20060;-66
2021/04/03 00:05:14;;;;;;;10.77;1.48;;;6.50;99.90;;;;;;5000427;28;20073;-66
2021/04/03 00:07:40;;;;;;;18.52;1.40;;;6.40;99.90;;;;;;4996584;28;20491;-66
2021/04/03 00:10:09;;;;;;;10.65;1.73;;;6.40;99.90;;;;;;5000619;28;20037;-65
2021/04/03 00:12:35;;;;;;;21.63;2.60;;;6.40;99.90;;;;;;4990718;28;20026;-66
2021/04/03 00:15:01;;;;;;;13.73;2.72;;;6.40;99.90;;;;;;4998084;28;20093;-67
2021/04/03 00:17:26;;;;;;;12.65;1.75;;;6.50;99.90;;;;;;4997473;28;20056;-66
2021/04/03 00:19:54;;;;;;;15.02;2.28;;;6.50;99.90;;;;;;4994267;28;20045;-65
2021/04/03 00:22:23;;;;;;;9.80;1.48;;;6.50;99.90;;;;;;5002032;28;20029;-65
2021/04/03 00:24:50;;;;;;;11.50;1.30;;;6.40;99.90;;;;;;4998895;28;20040;-66
2021/04/03 00:27:15;;;;;;;13.95;1.63;;;6.50;99.90;;;;;;4995079;28;20077;-66
2021/04/03 00:29:41;;;;;;;15.80;2.03;;;6.40;99.90;;;;;;5002309;28;20037;-65
2021/04/03 00:32:07;;;;;;;8.18;1.50;;;6.40;99.90;;;;;;5012564;28;20541;-67
2021/04/03 00:34:32;;;;;;;9.98;1.35;;;6.50;99.90;;;;;;5011768;28;20057;-67
2021/04/03 00:36:58;;;;;;;26.27;3.85;;;6.40;99.90;;;;;;5008560;28;20100;-69
2021/04/03 00:39:23;;;;;;;11.43;2.45;;;6.40;99.90;;;;;;4998191;28;20038;-65
2021/04/03 00:41:50;;;;;;;8.45;1.15;;;6.40;99.90;;;;;;5000543;28;20038;-66
2021/04/03 00:44:15;;;;;;;11.32;1.20;;;6.40;99.90;;;;;;4998940;28;20050;-66
2021/04/03 00:46:41;;;;;;;16.85;1.67;;;6.40;99.90;;;;;;4997481;28;20792;-65
2021/04/03 00:49:06;;;;;;;13.70;1.58;;;6.40;99.90;;;;;;4999430;28;20041;-67
2021/04/03 00:51:33;;;;;;;23.67;3.05;;;6.40;99.90;;;;;;4998486;28;20033;-62
2021/04/03 00:53:59;;;;;;;14.45;1.95;;;6.40;99.90;;;;;;5000701;28;20088;-64
2021/04/03 00:56:25;;;;;;;9.90;2.03;;;6.40;99.90;;;;;;4997633;28;20046;-65
2021/04/03 00:58:52;;;;;;;13.30;1.60;;;6.50;99.90;;;;;;4997528;28;20041;-66
2021/04/03 01:01:17;;;;;;;15.77;2.33;;;6.50;99.90;;;;;;5000065;28;20132;-66
2021/04/03 01:03:43;;;;;;;7.28;1.23;;;6.40;99.90;;;;;;4998272;28;20126;-66
2021/04/03 01:06:09;;;;;;;13.70;1.73;;;6.50;99.90;;;;;;4996118;28;20780;-66
2021/04/03 01:08:35;;;;;;;12.10;1.85;;;6.50;99.90;;;;;;4999615;28;20046;-65
2021/04/03 01:11:02;;;;;;;16.27;2.20;;;6.50;99.90;;;;;;4993721;28;20113;-65
2021/04/03 01:13:55;;;;;;;14.23;1.55;;;6.50;99.90;;;;;;4996813;28;20041;-66
2021/04/03 01:16:23;;;;;;;25.52;2.22;;;6.50;99.90;;;;;;4996409;28;20030;-66
2021/04/03 01:18:48;;;;;;;11.02;1.70;;;6.50;99.90;;;;;;4998148;28;20038;-66
2021/04/03 01:21:43;;;;;;;15.20;2.40;;;6.60;99.90;;;;;;4999385;28;20172;-66
2021/04/03 01:24:48;;;;;;;16.00;2.60;;;6.60;99.90;;;;;;4957590;28;20492;-66
2021/04/03 01:27:17;;;;;;;12.20;2.17;;;6.70;99.90;;;;;;5018020;28;20441;-66
2021/04/03 01:30:03;;;;;;;19.88;3.15;;;6.70;99.90;;;;;;5017193;28;20522;-66
2021/04/03 01:32:38;;;;;;;16.88;3.58;;;6.70;99.90;;;;;;5022179;28;20506;-66
2021/04/03 01:35:06;;;;;;;15.45;2.13;;;6.70;99.90;;;;;;5015870;28;20033;-64
2021/04/03 01:37:39;;;;;;;16.83;2.50;;;6.70;99.90;;;;;;5013263;28;20030;-66
2021/04/03 01:40:08;;;;;;;10.88;1.58;;;6.80;99.90;;;;;;5020403;28;20069;-66
2021/04/03 01:42:35;;;;;;;13.85;1.80;;;6.80;99.90;;;;;;5021365;28;20030;-66
2021/04/03 01:45:03;;;;;;;15.75;2.55;;;6.80;99.90;;;;;;5015174;28;20072;-65
2021/04/03 01:47:31;;;;;;;19.73;2.38;;;6.80;99.90;;;;;;5013506;28;20092;-66
2021/04/03 01:49:58;;;;;;;11.68;1.75;;;6.80;99.90;;;;;;5020277;28;20059;-66
2021/04/03 01:52:26;;;;;;;17.27;1.63;;;6.80;99.90;;;;;;5019535;28;20034;-66
2021/04/03 01:54:54;;;;;;;14.93;1.55;;;6.80;99.90;;;;;;5020510;28;20475;-66
2021/04/03 01:57:21;;;;;;;14.43;1.73;;;6.80;99.90;;;;;;5019155;28;20037;-65
2021/04/03 01:59:48;;;;;;;12.70;1.80;;;6.80;99.90;;;;;;5021343;28;20483;-66
2021/04/03 02:02:14;;;;;;;12.77;1.40;;;6.90;99.90;;;;;;5020017;28;20053;-65
2021/04/03 02:04:44;;;;;;;14.27;2.05;;;6.90;99.90;;;;;;5019611;28;20109;-66
2021/04/03 02:07:17;;;;;;;12.00;1.60;;;6.90;99.90;;;;;;5020641;28;20376;-63
2021/04/03 02:09:46;;;;;;;15.43;2.25;;;6.90;99.90;;;;;;5021510;28;20279;-65
2021/04/03 02:12:12;;;;;;;11.07;1.75;;;6.80;99.90;;;;;;5022817;28;20032;-66
2021/04/03 02:14:39;;;;;;;8.95;1.13;;;6.90;99.90;;;;;;5020975;28;20030;-66
2021/04/03 02:17:08;;;;;;;19.42;3.40;;;6.90;99.90;;;;;;5015914;28;20040;-66
2021/04/03 02:19:36;;;;;;;20.08;2.75;;;6.90;99.90;;;;;;5018946;28;20053;-64
2021/04/03 02:22:02;;;;;;;12.15;1.67;;;6.80;99.90;;;;;;5015143;28;20025;-65
2021/04/03 02:24:29;;;;;;;17.13;3.10;;;6.80;99.90;;;;;;5017758;28;20129;-64
2021/04/03 02:26:54;;;;;;;14.55;2.08;;;6.80;99.90;;;;;;5019776;28;20038;-64
2021/04/03 02:29:22;;;;;;;14.55;2.10;;;6.90;99.90;;;;;;5019048;28;20042;-64
2021/04/03 02:31:48;;;;;;;10.35;1.88;;;7.00;99.90;;;;;;5017902;28;20030;-64
2021/04/03 02:34:13;;;;;;;16.08;1.90;;;7.00;99.90;;;;;;5019982;28;20108;-65
2021/04/03 02:36:39;;;;;;;11.07;1.70;;;7.00;99.90;;;;;;5017229;28;20041;-64
2021/04/03 02:39:04;;;;;;;18.63;2.97;;;6.90;99.90;;;;;;5019856;28;20033;-64
2021/04/03 02:41:41;;;;;;;15.88;2.63;;;7.00;99.90;;;;;;5019197;28;20060;-64
2021/04/03 02:44:26;;;;;;;14.13;2.80;;;7.00;99.90;;;;;;5015434;28;20183;-65
2021/04/03 02:47:01;;;;;;;10.60;2.92;;;6.90;99.90;;;;;;5020372;28;20166;-65
2021/04/03 02:49:41;;;;;;;15.70;2.53;;;6.90;99.90;;;;;;5012692;28;20395;-64
2021/04/03 02:52:09;;;;;;;12.57;1.50;;;6.90;99.90;;;;;;5019564;28;20033;-64
2021/04/03 02:54:35;;;;;;;15.15;2.00;;;6.90;99.90;;;;;;5021705;28;20030;-65
2021/04/03 02:57:02;;;;;;;22.55;3.08;;;6.90;99.90;;;;;;5020195;28;20030;-64
2021/04/03 02:59:32;;;;;;;20.63;2.22;;;7.00;99.90;;;;;;5020441;28;20075;-64
2021/04/03 03:02:00;;;;;;;15.93;1.65;;;7.00;99.90;;;;;;5014434;28;20430;-64
2021/04/03 03:04:27;;;;;;;19.02;2.75;;;6.90;99.90;;;;;;5013172;28;20171;-64
2021/04/03 03:06:55;;;;;;;18.58;3.40;;;6.90;99.90;;;;;;5017897;28;20708;-64
2021/04/03 03:09:22;;;;;;;17.13;3.03;;;7.00;99.90;;;;;;5021116;28;20052;-64
2021/04/03 03:11:53;;;;;;;24.80;2.63;;;6.90;99.90;;;;;;5019612;28;20040;-64
2021/04/03 03:14:19;;;;;;;15.00;1.83;;;6.90;99.90;;;;;;5018505;28;20045;-64
2021/04/03 03:16:47;;;;;;;22.23;2.22;;;6.90;99.90;;;;;;5020547;28;20524;-65
2021/04/03 03:19:16;;;;;;;27.23;3.05;;;6.90;99.90;;;;;;5014751;28;20042;-64
2021/04/03 03:21:42;;;;;;;14.88;1.50;;;6.90;99.90;;;;;;5019896;28;20041;-64
2021/04/03 03:24:10;;;;;;;12.73;2.00;;;6.90;99.90;;;;;;5018637;28;20092;-65
2021/04/03 03:26:38;;;;;;;16.42;3.47;;;6.90;99.90;;;;;;5020662;28;20030;-65
2021/04/03 03:29:05;;;;;;;17.35;2.28;;;6.90;99.90;;;;;;5019157;28;20079;-64
2021/04/03 03:31:31;;;;;;;42.97;2.72;;;6.80;99.90;;;;;;5018545;28;20053;-64
2021/04/03 03:33:58;;;;;;;18.48;2.40;;;6.90;99.90;;;;;;5018364;28;20088;-63
2021/04/03 03:36:25;;;;;;;15.55;2.63;;;6.90;99.90;;;;;;5017697;28;20045;-63
2021/04/03 03:38:52;;;;;;;11.90;2.20;;;6.90;99.90;;;;;;5020202;28;20499;-64
2021/04/03 03:41:18;;;;;;;15.13;1.92;;;6.90;99.90;;;;;;5014963;28;20491;-64
2021/04/03 03:43:45;;;;;;;18.98;2.80;;;6.90;99.90;;;;;;5020457;28;20040;-64
2021/04/03 03:46:11;;;;;;;8.65;1.33;;;6.90;99.90;;;;;;5023740;28;20030;-66
2021/04/03 03:48:37;;;;;;;29.02;4.10;;;6.90;99.90;;;;;;5018365;28;20395;-65
2021/04/03 03:51:03;;;;;;;18.23;2.22;;;6.90;99.90;;;;;;5021266;28;20030;-64
2021/04/03 03:53:28;;;;;;;18.58;3.90;;;6.90;99.90;;;;;;5017206;28;20052;-64
2021/04/03 03:55:54;;;;;;;17.25;2.33;;;7.00;99.90;;;;;;5017540;28;20033;-65
2021/04/03 03:58:21;;;;;;;11.35;1.80;;;6.90;99.90;;;;;;5016640;28;20092;-66
2021/04/03 04:00:46;;;;;;;24.80;4.00;;;6.90;99.90;;;;;;5017050;28;20062;-65
2021/04/03 04:03:12;;;;;;;20.08;2.70;;;6.90;99.90;;;;;;5019222;28;20053;-65
2021/04/03 04:05:37;;;;;;;12.15;2.35;;;7.00;99.90;;;;;;5016777;28;20030;-64
2021/04/03 04:08:03;;;;;;;16.27;2.35;;;6.90;99.90;;;;;;5021511;28;20086;-65
2021/04/03 04:10:29;;;;;;;22.33;2.42;;;6.90;99.90;;;;;;5019134;28;20041;-63
2021/04/03 04:12:55;;;;;;;25.23;3.17;;;6.90;99.90;;;;;;5021371;28;20083;-64
2021/04/03 04:15:20;;;;;;;16.50;2.63;;;7.00;99.90;;;;;;5017274;28;20093;-64
2021/04/03 04:17:46;;;;;;;27.50;3.63;;;7.00;99.90;;;;;;5029328;28;20037;-65
2021/04/03 04:20:12;;;;;;;17.05;2.78;;;6.90;99.90;;;;;;5031638;28;20068;-65
2021/04/03 04:22:38;;;;;;;18.60;2.20;;;6.90;99.90;;;;;;5016608;28;20121;-64
2021/04/03 04:25:04;;;;;;;28.52;4.03;;;6.80;99.90;;;;;;5028216;28;20072;-65
2021/04/03 04:27:30;;;;;;;14.68;2.88;;;6.90;99.90;;;;;;5017078;28;20057;-64
2021/04/03 04:29:57;;;;;;;20.83;3.08;;;6.90;99.90;;;;;;5017962;28;20526;-65
2021/04/03 04:32:23;;;;;;;18.05;2.55;;;6.90;99.90;;;;;;5019930;28;20581;-64
2021/04/03 04:34:48;;;;;;;30.60;3.00;;;6.80;99.90;;;;;;5019261;28;20033;-64
2021/04/03 04:37:14;;;;;;;22.38;3.35;;;6.70;99.90;;;;;;5017864;28;20077;-64
2021/04/03 04:39:39;;;;;;;18.45;2.63;;;6.70;99.90;;;;;;5018552;28;20079;-64
2021/04/03 04:42:05;;;;;;;24.00;3.17;;;6.60;99.90;;;;;;5016500;28;20045;-63
2021/04/03 04:44:31;;;;;;;18.73;2.92;;;6.50;99.90;;;;;;5017710;28;20046;-64
2021/04/03 04:46:57;;;;;;;30.65;3.10;;;6.50;99.90;;;;;;5021631;28;20034;-64
2021/04/03 04:49:22;;;;;;;19.42;2.47;;;6.50;99.90;;;;;;5016825;28;20087;-65
2021/04/03 04:51:48;;;;;;;21.73;3.25;;;6.40;99.90;;;;;;5019715;28;20034;-63
2021/04/03 04:54:14;;;;;;;11.85;2.08;;;6.40;99.90;;;;;;5018055;28;20057;-64
2021/04/03 04:56:39;;;;;;;20.33;3.50;;;6.40;99.90;;;;;;5016661;28;20161;-66
2021/04/03 04:59:05;;;;;;;21.80;2.40;;;6.30;99.90;;;;;;5016875;28;20495;-65
2021/04/03 05:01:30;;;;;;;18.45;2.83;;;6.30;99.90;;;;;;5020662;28;20502;-65
2021/04/03 05:03:56;;;;;;;35.70;3.50;;;6.30;99.90;;;;;;5021698;28;20038;-64
2021/04/03 05:06:21;;;;;;;17.48;3.30;;;6.30;99.90;;;;;;5020773;28;20446;-64
2021/04/03 05:08:47;;;;;;;18.35;3.72;;;6.30;99.90;;;;;;5022348;28;20448;-64
2021/04/03 05:11:12;;;;;;;23.40;2.75;;;6.20;99.90;;;;;;5021315;28;20045;-65
2021/04/03 05:13:38;;;;;;;19.65;3.35;;;6.20;99.90;;;;;;5021116;28;20144;-65
2021/04/03 05:16:04;;;;;;;24.77;4.45;;;6.10;99.90;;;;;;5023776;28;20034;-65
2021/04/03 05:18:29;;;;;;;26.80;3.38;;;6.10;99.90;;;;;;5024656;28;20118;-65
2021/04/03 05:20:55;;;;;;;25.48;3.25;;;6.00;99.90;;;;;;5025496;28;20037;-64
2021/04/03 05:23:20;;;;;;;27.40;3.25;;;5.90;99.90;;;;;;5016784;28;20029;-64
2021/04/03 05:25:46;;;;;;;27.10;3.67;;;5.90;99.90;;;;;;5019547;28;20069;-64
2021/04/03 05:28:15;;;;;;;28.25;3.63;;;5.90;99.90;;;;;;5025113;28;20048;-63
2021/04/03 05:30:42;;;;;;;30.45;4.15;;;5.90;99.90;;;;;;5023820;28;20045;-66
2021/04/03 05:33:07;;;;;;;21.13;2.90;;;5.90;99.90;;;;;;5020520;28;20036;-64
2021/04/03 05:35:33;;;;;;;21.17;2.38;;;5.90;99.90;;;;;;5020126;28;20116;-65
2021/04/03 05:37:59;;;;;;;28.73;3.53;;;5.90;99.90;;;;;;5019899;28;20041;-65
2021/04/03 05:40:24;;;;;;;22.63;2.67;;;5.90;99.90;;;;;;5018760;28;20056;-64
2021/04/03 05:42:52;;;;;;;28.55;4.18;;;5.90;99.90;;;;;;5018683;28;20044;-65
2021/04/03 05:45:19;;;;;;;25.83;4.00;;;6.00;99.90;;;;;;5014038;28;20048;-64
2021/04/03 05:47:45;;;;;;;29.75;3.72;;;6.10;99.90;;;;;;5020087;28;20033;-64
2021/04/03 05:50:12;;;;;;;18.73;3.50;;;6.30;99.90;;;;;;5020782;28;20127;-64
2021/04/03 05:52:39;;;;;;;21.67;2.67;;;6.40;99.90;;;;;;5020411;28;20054;-66
2021/04/03 05:55:06;;;;;;;19.40;4.13;;;6.60;99.90;;;;;;5023819;28;20057;-64
2021/04/03 05:57:31;;;;;;;33.03;4.53;;;6.80;99.90;;;;;;5021805;28;20116;-64
2021/04/03 05:59:57;;;;;;;18.27;2.97;;;7.00;99.90;;;;;;5020244;28;20447;-64
2021/04/03 06:02:23;;;;;;;23.77;2.95;;;7.20;99.90;;;;;;5020101;28;20051;-65
2021/04/03 06:04:52;;;;;;;21.60;3.35;;;7.30;99.90;;;;;;5019643;28;20058;-64
2021/04/03 06:07:18;;;;;;;17.58;2.75;;;7.50;99.90;;;;;;5013454;28;20410;-66
2021/04/03 06:09:44;;;;;;;27.40;3.20;;;7.60;99.90;;;;;;5013010;28;20041;-65
2021/04/03 06:12:10;;;;;;;12.57;2.38;;;7.80;99.90;;;;;;5019780;28;20030;-64
2021/04/03 06:14:36;;;;;;;28.52;4.15;;;8.30;99.90;;;;;;5022767;28;20084;-64
2021/04/03 06:17:03;;;;;;;17.95;3.13;;;8.70;99.90;;;;;;5020857;28;20029;-64
2021/04/03 06:19:29;;;;;;;14.70;2.58;;;9.20;99.90;;;;;;5024651;28;20086;-64
2021/04/03 06:22:01;;;;;;;23.00;3.58;;;9.40;99.90;;;;;;5022519;28;20120;-64
2021/04/03 06:24:37;;;;;;;15.82;2.85;;;9.10;99.90;;;;;;5020132;28;20046;-64
2021/04/03 06:27:09;;;;;;;13.65;2.58;;;8.90;99.90;;;;;;5023410;28;20037;-64
2021/04/03 06:29:47;;;;;;;18.92;3.60;;;8.90;99.90;;;;;;5019997;28;20183;-64
2021/04/03 06:32:32;;;;;;;19.63;2.90;;;9.30;99.90;;;;;;5019334;28;20037;-64
2021/04/03 06:34:57;;;;;;;20.85;2.83;;;10.00;99.90;;;;;;5020462;28;20037;-65
2021/04/03 06:37:31;;;;;;;15.05;2.28;;;10.50;99.90;;;;;;5018225;28;20376;-64
2021/04/03 06:40:00;;;;;;;14.02;2.50;;;11.00;99.90;;;;;;5019490;28;20238;-65
2021/04/03 06:42:58;;;;;;;16.67;2.22;;;11.40;99.90;;;;;;5000464;28;20034;-65
2021/04/03 06:45:35;;;;;;;15.98;2.60;;;11.60;98.50;;;;;;4988864;28;20041;-65
2021/04/03 06:48:01;;;;;;;9.55;2.10;;;11.70;98.00;;;;;;5020862;28;20026;-65
2021/04/03 06:50:29;;;;;;;21.95;2.80;;;11.70;96.60;;;;;;5018903;28;20045;-65
2021/04/03 06:52:56;;;;;;;13.00;2.03;;;11.50;96.70;;;;;;5020949;28;20045;-64
2021/04/03 06:55:24;;;;;;;19.33;2.20;;;11.20;98.00;;;;;;5017326;28;20034;-64
2021/04/03 06:57:52;;;;;;;23.48;3.53;;;10.90;98.10;;;;;;5019028;28;20030;-64
2021/04/03 07:00:19;;;;;;;12.88;2.38;;;10.50;99.40;;;;;;5000849;28;20045;-64
2021/04/03 07:03:05;;;;;;;12.85;2.00;;;10.10;99.90;;;;;;4999568;28;20045;-64
2021/04/03 07:05:34;;;;;;;24.58;4.30;;;9.80;99.90;;;;;;4999610;28;20041;-65
2021/04/03 07:08:02;;;;;;;17.42;2.72;;;9.60;99.90;;;;;;4997640;28;20499;-65
2021/04/03 07:10:29;;;;;;;14.10;2.88;;;9.50;99.90;;;;;;4998522;28;20065;-65
2021/04/03 07:12:58;;;;;;;14.00;2.85;;;9.60;99.90;;;;;;4991519;28;20062;-64
2021/04/03 07:15:25;;;;;;;17.42;2.80;;;9.40;99.90;;;;;;4992010;28;20062;-65
2021/04/03 07:17:52;;;;;;;15.07;2.25;;;9.30;99.90;;;;;;4999323;28;20034;-64
2021/04/03 07:20:20;;;;;;;13.35;2.28;;;9.40;99.90;;;;;;4994967;28;20039;-64
2021/04/03 07:22:50;;;;;;;14.80;1.85;;;9.40;99.90;;;;;;4995587;28;20084;-64
2021/04/03 07:25:17;;;;;;;16.45;2.85;;;9.30;99.90;;;;;;4998531;28;20030;-64
2021/04/03 07:27:49;;;;;;;13.23;2.05;;;9.20;99.90;;;;;;4989872;28;20034;-65
2021/04/03 07:30:34;;;;;;;21.13;3.38;;;9.30;99.90;;;;;;4985209;28;20038;-65
2021/04/03 07:33:13;;;;;;;39.00;4.30;;;9.40;99.90;;;;;;5001758;28;20380;-65
2021/04/03 07:36:02;;;;;;;23.33;2.88;;;9.30;99.90;;;;;;4999563;28;20035;-66
2021/04/03 07:38:37;;;;;;;25.35;3.60;;;9.60;99.90;;;;;;4996837;28;20089;-65
2021/04/03 07:41:16;;;;;;;21.90;2.72;;;9.80;99.90;;;;;;5014429;28;20107;-65
2021/04/03 07:43:47;;;;;;;13.95;2.30;;;9.70;99.90;;;;;;5006052;28;20034;-66
2021/04/03 07:46:35;;;;;;;16.48;2.50;;;9.80;99.90;;;;;;4995792;28;20034;-65
2021/04/03 07:49:01;;;;;;;14.18;2.20;;;9.60;99.90;;;;;;4995796;28;20388;-63
2021/04/03 07:51:32;;;;;;;16.48;2.00;;;9.70;99.90;;;;;;4999551;28;20034;-64
2021/04/03 07:54:00;;;;;;;20.77;3.03;;;9.80;99.90;;;;;;4999536;28;20619;-64
2021/04/03 07:56:46;;;;;;;11.57;2.13;;;9.90;99.90;;;;;;4999241;28;20487;-65
2021/04/03 07:59:12;;;;;;;20.45;2.72;;;9.70;99.90;;;;;;4996307;28;20073;-64
2021/04/03 08:01:38;;;;;;;15.73;2.45;;;9.50;99.90;;;;;;4997882;28;20712;-66
2021/04/03 08:04:06;;;;;;;18.75;2.47;;;9.40;99.90;;;;;;5003071;28;20030;-65
2021/04/03 08:06:38;;;;;;;14.38;2.83;;;9.40;99.90;;;;;;5011190;28;20048;-65
2021/04/03 08:09:09;;;;;;;17.20;2.50;;;9.30;99.90;;;;;;5008231;28;20038;-65
2021/04/03 08:11:34;;;;;;;20.80;2.40;;;9.30;99.90;;;;;;5000452;28;20109;-67
2021/04/03 08:14:01;;;;;;;15.82;2.83;;;9.30;99.90;;;;;;4999875;28;20770;-64
2021/04/03 08:16:29;;;;;;;19.30;3.00;;;9.60;99.90;;;;;;5001783;28;20180;-64
2021/04/03 08:18:57;;;;;;;18.88;3.10;;;9.90;99.90;;;;;;4999739;28;20045;-64
2021/04/03 08:21:25;;;;;;;12.18;2.95;;;10.10;99.90;;;;;;4997588;28;20041;-64
2021/04/03 08:23:53;;;;;;;17.27;2.45;;;10.20;99.90;;;;;;4997967;28;20041;-64
2021/04/03 08:26:20;;;;;;;12.55;1.88;;;10.00;99.90;;;;;;4996081;28;20089;-65
2021/04/03 08:28:46;;;;;;;13.77;3.15;;;9.80;99.90;;;;;;4999441;28;20033;-64
2021/04/03 08:31:15;;;;;;;13.48;2.53;;;9.80;99.90;;;;;;4995123;28;20038;-64
2021/04/03 08:33:41;;;;;;;18.77;3.05;;;9.70;99.90;;;;;;4991140;28;20084;-64
2021/04/03 08:36:11;;;;;;;13.90;2.25;;;9.60;99.90;;;;;;4992664;28;20057;-65
2021/04/03 08:38:38;;;;;;;20.55;2.80;;;9.90;99.90;;;;;;4993569;28;20030;-64
2021/04/03 08:41:03;;;;;;;18.50;3.08;;;10.10;99.90;;;;;;5002942;28;20052;-65
2021/04/03 08:43:31;;;;;;;24.45;4.28;;;10.40;99.90;;;;;;5001070;28;20617;-65
2021/04/03 08:46:06;;;;;;;21.58;2.50;;;10.60;99.90;;;;;;5001747;28;20038;-64
2021/04/03 08:48:40;;;;;;;18.83;2.80;;;10.60;99.90;;;;;;5003375;28;20454;-66
2021/04/03 08:51:08;;;;;;;19.77;2.63;;;10.40;99.90;;;;;;5000504;28;20033;-65
2021/04/03 08:53:47;;;;;;;9.38;1.55;;;10.30;99.90;;;;;;5004586;28;20032;-65
2021/04/03 08:56:32;;;;;;;12.30;1.92;;;10.10;99.90;;;;;;4997563;28;20041;-64
2021/04/03 08:58:59;;;;;;;11.88;1.88;;;10.10;99.90;;;;;;5004106;28;20109;-66
2021/04/03 09:01:31;;;;;;;12.98;1.88;;;10.30;99.90;;;;;;5000104;28;20063;-65
2021/04/03 09:04:03;;;;;;;12.02;2.22;;;10.40;99.90;;;;;;5003328;28;20803;-65
2021/04/03 09:06:43;;;;;;;22.88;3.67;;;10.50;99.90;;;;;;5004997;28;20048;-65
2021/04/03 09:09:11;;;;;;;16.85;2.05;;;10.90;99.90;;;;;;4996053;28;20499;-65
2021/04/03 09:11:37;;;;;;;17.65;2.05;;;11.00;99.90;;;;;;5000754;28;20030;-65
2021/04/03 09:14:03;;;;;;;13.95;2.20;;;11.30;99.90;;;;;;4997423;28;20037;-65
2021/04/03 09:16:36;;;;;;;12.85;2.05;;;11.30;99.70;;;;;;4997194;28;20046;-66
2021/04/03 09:19:02;;;;;;;18.52;2.67;;;11.30;98.90;;;;;;4996086;28;20038;-65
2021/04/03 11:04:09;;;;;;;17.95;2.95;;;11.10;98.60;;;;;;5086804;27;20337;-67
2021/04/03 11:06:35;;;;;;;10.40;2.35;;;11.30;97.50;;;;;;5086823;28;20111;-68
2021/04/03 11:09:01;;;;;;;11.90;2.15;;;11.20;95.90;;;;;;5077145;28;20710;-67
2021/04/03 11:11:27;;;;;;;15.23;1.50;;;11.10;95.80;;;;;;5060772;28;20115;-66
2021/04/03 11:13:53;;;;;;;14.82;2.13;;;10.80;96.20;;;;;;5059658;28;20108;-64
2021/04/03 11:16:18;;;;;;;9.85;2.22;;;10.70;96.60;;;;;;5061316;28;20039;-66
2021/04/03 11:18:44;;;;;;;23.38;2.33;;;10.70;95.40;;;;;;5061673;28;20405;-64
2021/04/03 11:21:09;;;;;;;12.90;1.73;;;10.60;95.50;;;;;;5059040;28;20116;-67
2021/04/03 11:23:35;;;;;;;16.52;3.35;;;10.50;95.50;;;;;;5062094;28;20387;-66
2021/04/03 11:26:01;;;;;;;11.35;1.83;;;10.70;95.40;;;;;;5059318;28;20609;-67
2021/04/03 11:28:27;;;;;;;15.13;1.80;;;10.60;96.10;;;;;;5066954;28;20112;-66
2021/04/03 11:30:53;;;;;;;14.80;1.90;;;10.60;95.60;;;;;;5058139;28;20528;-65
2021/04/03 11:33:19;;;;;;;9.52;1.50;;;10.60;95.80;;;;;;5057393;28;20051;-66
2021/04/03 11:35:45;;;;;;;12.20;2.10;;;10.60;94.50;;;;;;5061400;28;20048;-66
2021/04/03 11:38:11;;;;;;;11.30;1.63;;;10.70;94.60;;;;;;5053988;28;20552;-65
2021/04/03 11:40:37;;;;;;;17.88;3.35;;;11.00;94.10;;;;;;5060827;28;20036;-67
2021/04/03 11:43:03;;;;;;;16.17;2.17;;;11.00;94.30;;;;;;5054385;28;20045;-65
2021/04/03 11:45:29;;;;;;;12.25;2.08;;;11.00;93.60;;;;;;5064620;28;20045;-66
2021/04/03 11:47:55;;;;;;;15.20;1.70;;;11.00;93.90;;;;;;5059834;28;20032;-68
2021/04/03 11:50:21;;;;;;;18.10;2.28;;;10.90;94.10;;;;;;5063398;28;20124;-66
2021/04/03 11:52:47;;;;;;;12.05;2.17;;;10.80;94.40;;;;;;5065266;28;20049;-67
2021/04/03 11:55:16;;;;;;;15.57;1.80;;;10.80;95.20;;;;;;5065278;28;20040;-69
2021/04/03 11:57:42;;;;;;;15.10;1.75;;;11.00;95.10;;;;;;5060123;28;20036;-66
2021/04/03 12:00:09;;;;;;;13.88;2.05;;;10.90;94.20;;;;;;5053615;28;20037;-66
2021/04/03 12:02:36;;;;;;;11.88;2.13;;;10.80;94.10;;;;;;5056966;28;20036;-65
2021/04/03 12:05:03;;;;;;;13.32;1.80;;;10.80;93.50;;;;;;5057325;28;20041;-65
2021/04/03 12:07:28;;;;;;;12.55;1.63;;;10.80;93.70;;;;;;5054159;28;20633;-67
2021/04/03 12:09:54;;;;;;;15.80;2.47;;;10.80;94.50;;;;;;5060710;28;20043;-67
2021/04/03 12:12:19;;;;;;;10.07;2.10;;;11.10;95.30;;;;;;5063671;28;20551;-68
2021/04/03 12:14:45;;;;;;;12.18;1.85;;;11.40;93.90;;;;;;5052761;28;20032;-65
2021/04/03 12:17:10;;;;;;;9.82;1.50;;;11.50;92.40;;;;;;5044784;28;20152;-67
2021/04/03 12:19:36;;;;;;;10.52;2.15;;;11.60;92.80;;;;;;5042686;28;20441;-67
2021/04/03 12:22:02;;;;;;;13.23;2.53;;;11.50;92.30;;;;;;5041910;28;20041;-66
2021/04/03 12:24:27;;;;;;;19.95;3.05;;;11.50;92.80;;;;;;5042820;28;20029;-66
2021/04/03 12:26:53;;;;;;;12.68;2.22;;;11.40;92.90;;;;;;5039699;28;20402;-65
2021/04/03 12:29:18;;;;;;;14.65;1.80;;;11.20;93.40;;;;;;5044371;28;20030;-66
2021/04/03 12:31:44;;;;;;;15.48;2.38;;;11.20;93.70;;;;;;5044855;28;20128;-64
2021/04/03 12:34:09;;;;;;;19.63;2.47;;;11.20;91.40;;;;;;5041046;28;20033;-65
2021/04/03 12:36:35;;;;;;;10.10;1.90;;;11.10;92.30;;;;;;5043857;28;20032;-66
2021/04/03 12:39:01;;;;;;;14.32;2.10;;;11.00;92.40;;;;;;5048310;28;20240;-66
2021/04/03 12:41:26;;;;;;;13.68;1.92;;;11.10;93.30;;;;;;5048659;28;20033;-64
2021/04/03 12:43:52;;;;;;;17.08;2.15;;;11.10;93.20;;;;;;5045493;28;20124;-67
2021/04/03 12:46:19;;;;;;;10.93;2.70;;;11.10;93.10;;;;;;5042264;28;20112;-63
2021/04/03 12:48:45;;;;;;;13.88;1.52;;;11.10;92.70;;;;;;5041961;28;20632;-65
2021/04/03 12:51:10;;;;;;;9.48;1.73;;;11.10;92.70;;;;;;5041036;28;20179;-65
2021/04/03 12:53:37;;;;;;;13.95;1.77;;;11.30;93.30;;;;;;5045221;28;20064;-66
2021/04/03 12:56:03;;;;;;;11.38;2.38;;;11.30;92.80;;;;;;5046689;28;20048;-66
2021/04/03 12:58:29;;;;;;;13.15;2.03;;;11.20;92.40;;;;;;5045937;28;20028;-67
2021/04/03 13:00:54;;;;;;;15.38;1.67;;;11.30;92.50;;;;;;5044067;28;20029;-66
2021/04/03 13:03:20;;;;;;;14.45;2.17;;;11.30;93.10;;;;;;5039269;28;20440;-66
2021/04/03 13:05:45;;;;;;;11.95;2.13;;;11.30;91.60;;;;;;5041952;28;20047;-65
2021/04/03 13:08:11;;;;;;;8.65;1.80;;;11.30;91.50;;;;;;5045529;28;20072;-67
2021/04/03 13:10:37;;;;;;;6.97;1.27;;;11.30;92.40;;;;;;5042583;28;20397;-65
2021/04/03 13:13:02;;;;;;;8.25;1.55;;;11.20;92.00;;;;;;5044010;28;20095;-67
2021/04/03 13:15:28;;;;;;;10.25;1.38;;;11.10;92.20;;;;;;5045390;28;20029;-64
2021/04/03 13:17:55;;;;;;;13.40;2.55;;;11.00;92.80;;;;;;5043343;28;20057;-65
2021/04/03 13:20:21;;;;;;;11.27;3.08;;;11.00;93.00;;;;;;5043832;28;20045;-65
2021/04/03 13:22:46;;;;;;;16.88;2.70;;;11.00;93.10;;;;;;5041935;28;20049;-65
2021/04/03 13:25:12;;;;;;;12.82;1.95;;;11.00;92.90;;;;;;5040331;28;20026;-66
2021/04/03 13:27:38;;;;;;;13.75;2.20;;;11.10;93.20;;;;;;5042543;28;20029;-65
2021/04/03 13:30:06;;;;;;;12.68;2.38;;;11.10;93.20;;;;;;5041723;28;20045;-65
2021/04/03 13:32:33;;;;;;;10.70;1.75;;;11.10;92.80;;;;;;5041028;28;20038;-66
2021/04/03 13:34:59;;;;;;;13.20;2.40;;;11.10;92.80;;;;;;5046027;28;20571;-66
2021/04/03 13:37:24;;;;;;;17.08;2.00;;;11.20;92.60;;;;;;5043971;28;20029;-65
2021/04/03 13:39:50;;;;;;;16.83;2.65;;;11.30;92.50;;;;;;5039326;28;20082;-67
2021/04/03 13:42:16;;;;;;;10.85;3.05;;;11.30;92.20;;;;;;5042288;28;20033;-66
2021/04/03 13:44:42;;;;;;;15.85;2.35;;;11.20;92.60;;;;;;5040339;28;20017;-66
2021/04/03 13:47:07;;;;;;;12.32;2.60;;;11.20;91.70;;;;;;5044152;28;20033;-65
2021/04/03 13:49:33;;;;;;;13.40;1.83;;;11.00;91.60;;;;;;5044731;28;20029;-68
2021/04/03 13:51:59;;;;;;;14.07;3.15;;;10.80;91.90;;;;;;5042860;28;20032;-66
2021/04/03 13:54:24;;;;;;;8.43;1.42;;;10.70;92.60;;;;;;5039076;28;20557;-66
2021/04/03 13:56:50;;;;;;;9.27;2.17;;;10.80;92.50;;;;;;5040779;28;20127;-64
2021/04/03 13:59:16;;;;;;;11.38;1.70;;;10.80;91.90;;;;;;5037184;28;20067;-66
2021/04/03 14:01:42;;;;;;;15.40;2.08;;;10.80;91.80;;;;;;5043216;28;20514;-68
2021/04/03 14:04:07;;;;;;;13.55;1.60;;;10.70;92.60;;;;;;5039816;28;20098;-67
2021/04/03 14:06:33;;;;;;;14.25;2.53;;;10.60;93.30;;;;;;5039618;28;20033;-65
2021/04/03 14:08:58;;;;;;;16.35;2.15;;;10.70;93.70;;;;;;5042822;28;20041;-66
2021/04/03 14:11:24;;;;;;;18.55;2.83;;;10.80;94.60;;;;;;5045110;28;20040;-67
2021/04/03 14:13:49;;;;;;;14.70;1.95;;;10.90;94.00;;;;;;5042748;28;20490;-65
2021/04/03 14:16:15;;;;;;;11.43;1.50;;;11.00;94.00;;;;;;5044279;28;20049;-66
2021/04/03 14:18:41;;;;;;;19.25;2.03;;;11.00;93.20;;;;;;5039706;28;20033;-65
2021/04/03 14:21:08;;;;;;;14.50;2.28;;;10.90;92.60;;;;;;5047254;28;20584;-66
2021/04/03 14:23:35;;;;;;;13.60;2.40;;;10.80;92.30;;;;;;5042702;28;20387;-65
2021/04/03 14:26:05;;;;;;;12.32;2.38;;;10.70;93.10;;;;;;5042121;28;20083;-66
2021/04/03 14:28:31;;;;;;;11.70;1.75;;;10.70;94.40;;;;;;5041973;28;20521;-66